createdAt,value
2019-01-05T00:02:13.554Z,59.40
2019-01-05T00:05:13.812Z,62.78
2019-01-05T00:08:20.163Z,63.25
2019-01-05T00:11:27.681Z,58.78
2019-01-05T00:14:27.972Z,66.33
2019-01-05T00:17:28.909Z,58.35
2019-01-05T00:20:16.838Z,62.78
2019-01-05T00:22:58.470Z,61.88
2019-01-05T00:25:45.449Z,61.00
2019-01-05T00:28:48.536Z,62.48
2019-01-05T00:31:27.600Z,62.55
2019-01-05T00:34:25.936Z,59.67
2019-01-05T00:37:16.115Z,60.63
2019-01-05T00:40:17.235Z,62.80
2019-01-05T00:43:16.246Z,62.55
2019-01-05T00:46:09.729Z,58.25
2019-01-05T00:49:01.132Z,60.85
2019-01-05T00:51:50.606Z,58.83
2019-01-05T00:54:42.796Z,60.65
2019-01-05T00:57:31.504Z,63.23
2019-01-05T01:00:20.432Z,60.25
2019-01-05T01:03:15.010Z,56.55
2019-01-05T01:06:01.915Z,58.28
2019-01-05T01:08:45.864Z,54.55
2019-01-05T01:11:32.758Z,58.42
2019-01-05T01:14:19.586Z,56.15
2019-01-05T01:17:03.168Z,56.70
2019-01-05T01:19:50.028Z,55.35
2019-01-05T01:22:54.290Z,56.28
2019-01-05T01:25:39.848Z,57.58
2019-01-05T01:28:28.526Z,59.55
2019-01-05T01:31:35.061Z,60.30
2019-01-05T01:34:20.187Z,56.90
2019-01-05T01:37:20.965Z,61.58
2019-01-05T01:40:11.797Z,55.23
2019-01-05T01:42:59.837Z,57.40
2019-01-05T01:46:05.788Z,56.23
2019-01-05T01:48:47.314Z,52.23
2019-01-05T01:51:46.755Z,54.20
2019-01-05T01:54:41.893Z,51.68
2019-01-05T01:57:44.839Z,50.43
2019-01-05T02:00:52.290Z,52.00
2019-01-05T02:03:54.079Z,54.00
2019-01-05T02:07:01.473Z,54.35
2019-01-05T02:09:51.723Z,55.10
2019-01-05T02:12:40.687Z,53.48
2019-01-05T02:15:29.356Z,55.28
2019-01-05T02:18:30.097Z,50.23
2019-01-05T02:22:01.202Z,56.28
2019-01-05T02:25:25.840Z,51.60
2019-01-05T02:28:55.692Z,51.00
2019-01-05T02:32:21.364Z,49.18
2019-01-05T02:35:38.781Z,55.10
2019-01-05T02:39:15.683Z,48.73
2019-01-05T02:42:49.037Z,52.98
2019-01-05T02:46:08.211Z,47.95
2019-01-05T02:49:27.757Z,48.92
2019-01-05T02:52:45.567Z,50.52
2019-01-05T02:56:05.938Z,49.23
2019-01-05T02:59:29.640Z,49.95
2019-01-05T03:03:02.534Z,53.50
2019-01-05T03:06:31.966Z,49.48
2019-01-05T03:10:09.414Z,46.65
2019-01-05T03:13:25.023Z,47.27
2019-01-05T03:16:40.908Z,51.35
2019-01-05T03:20:23.702Z,49.60
2019-01-05T03:23:46.218Z,53.02
2019-01-05T03:27:24.442Z,49.80
2019-01-05T03:31:05.509Z,52.13
2019-01-05T03:34:36.234Z,48.85
2019-01-05T03:37:52.766Z,50.30
2019-01-05T03:41:30.992Z,47.17
2019-01-05T03:45:05.036Z,48.78
2019-01-05T03:48:19.112Z,50.55
2019-01-05T03:51:54.170Z,49.50
2019-01-05T03:55:50.268Z,45.55
2019-01-05T03:59:31.493Z,45.43
2019-01-05T04:03:04.044Z,46.30
2019-01-05T04:06:33.689Z,40.98
2019-01-05T04:10:09.782Z,41.85
2019-01-05T04:13:22.886Z,37.23
2019-01-05T04:16:27.322Z,37.13
2019-01-05T04:20:13.928Z,39.42
2019-01-05T04:23:47.477Z,37.58
2019-01-05T04:27:23.480Z,37.15
2019-01-05T04:31:22.794Z,35.95
2019-01-05T04:35:09.855Z,39.03
2019-01-05T04:38:32.883Z,39.15
2019-01-05T04:41:58.498Z,35.60
2019-01-05T04:45:17.642Z,34.88
2019-01-05T04:48:39.377Z,39.92
2019-01-05T04:52:04.567Z,39.27
2019-01-05T04:55:34.560Z,36.08
2019-01-05T04:59:00.706Z,37.35
2019-01-05T05:02:25.797Z,41.37
2019-01-05T05:06:11.060Z,39.00
2019-01-05T05:09:22.740Z,38.55
2019-01-05T05:12:57.029Z,38.15
2019-01-05T05:16:10.032Z,36.48
2019-01-05T05:19:39.004Z,37.95
2019-01-05T05:23:09.452Z,35.68
2019-01-05T05:26:27.151Z,33.90
2019-01-05T05:30:07.261Z,34.45
2019-01-05T05:33:41.204Z,32.63
2019-01-05T05:36:59.876Z,33.33
2019-01-05T05:40:11.618Z,31.75
2019-01-05T05:43:48.072Z,33.20
2019-01-05T05:47:21.691Z,30.97
2019-01-05T05:50:49.765Z,28.57
2019-01-05T05:54:13.045Z,29.90
2019-01-05T05:57:31.719Z,26.95
2019-01-05T06:00:58.482Z,26.82
2019-01-05T06:04:18.016Z,27.22
2019-01-05T06:08:10.269Z,23.38
2019-01-05T06:11:37.602Z,22.52
2019-01-05T06:15:23.552Z,24.55
2019-01-05T06:19:08.745Z,20.48
2019-01-05T06:22:52.165Z,20.95
2019-01-05T06:26:15.918Z,17.40
2019-01-05T06:29:42.087Z,17.67
2019-01-05T06:33:34.412Z,20.88
2019-01-05T06:37:02.597Z,18.50
2019-01-05T06:40:29.223Z,19.73
2019-01-05T06:43:56.872Z,16.20
2019-01-05T06:47:29.425Z,18.70
2019-01-05T06:50:52.679Z,19.10
2019-01-05T06:54:32.325Z,19.48
2019-01-05T06:58:11.252Z,17.75
2019-01-05T07:01:44.625Z,17.20
2019-01-05T07:05:06.864Z,16.85
2019-01-05T07:08:30.590Z,17.37
2019-01-05T07:12:05.526Z,13.75
2019-01-05T07:15:32.750Z,13.43
2019-01-05T07:19:02.412Z,15.30
2019-01-05T07:22:38.288Z,14.47
2019-01-05T07:26:09.220Z,13.85
2019-01-05T07:29:31.909Z,15.90
2019-01-05T07:33:17.153Z,13.55
2019-01-05T07:36:41.147Z,15.50
2019-01-05T07:40:16.993Z,14.68
2019-01-05T07:43:35.185Z,14.68
2019-01-05T07:46:58.832Z,14.68
2019-01-05T07:50:43.686Z,16.65
2019-01-05T07:54:22.747Z,16.85
2019-01-05T07:57:26.222Z,14.30
2019-01-05T08:00:59.998Z,15.05
2019-01-05T08:04:55.499Z,11.90
2019-01-05T08:08:32.977Z,12.73
2019-01-05T08:12:02.879Z,12.80
2019-01-05T08:15:56.404Z,10.70
2019-01-05T08:19:38.479Z,10.72
2019-01-05T08:23:19.309Z,11.30
2019-01-05T08:26:47.284Z,10.68
2019-01-05T08:30:07.656Z,10.85
2019-01-05T08:33:49.555Z,9.40
2019-01-05T08:37:14.897Z,10.65
2019-01-05T08:40:55.952Z,9.48
2019-01-05T08:44:19.859Z,9.53
2019-01-05T08:48:00.740Z,9.15
2019-01-05T08:51:43.469Z,9.50
2019-01-05T08:55:08.959Z,9.23
2019-01-05T08:58:51.367Z,7.83
2019-01-05T09:02:24.600Z,9.88
2019-01-05T09:06:18.361Z,12.53
2019-01-05T09:09:57.439Z,7.47
2019-01-05T09:13:25.417Z,7.78
2019-01-05T09:16:56.260Z,8.10
2019-01-05T09:20:36.597Z,6.40
2019-01-05T09:27:05.965Z,6.58
2019-01-05T09:30:37.548Z,6.85
2019-01-05T09:34:31.056Z,5.25
2019-01-05T09:38:04.749Z,5.95
2019-01-05T09:41:40.055Z,5.47
2019-01-05T09:45:05.180Z,4.80
2019-01-05T09:48:36.071Z,8.65
2019-01-05T09:51:53.370Z,6.20
2019-01-05T09:55:16.821Z,5.12
2019-01-05T09:58:39.696Z,5.42
2019-01-05T10:02:06.092Z,5.42
2019-01-05T10:06:19.350Z,6.67
2019-01-05T10:09:33.974Z,6.62
2019-01-05T10:12:59.204Z,7.60
2019-01-05T10:16:30.722Z,6.12
2019-01-05T10:20:14.926Z,5.60
2019-01-05T10:23:37.754Z,6.72
2019-01-05T10:27:00.494Z,6.62
2019-01-05T10:30:28.290Z,7.37
2019-01-05T10:34:09.228Z,6.50
2019-01-05T10:38:02.226Z,7.67
2019-01-05T10:41:32.760Z,7.22
2019-01-05T10:45:00.850Z,7.47
2019-01-05T10:48:29.305Z,7.53
2019-01-05T10:51:55.566Z,8.43
2019-01-05T10:55:50.786Z,8.35
2019-01-05T10:59:12.950Z,9.95
2019-01-05T11:02:56.579Z,9.68
2019-01-05T11:06:28.863Z,9.48
2019-01-05T11:10:09.913Z,11.35
2019-01-05T11:13:37.665Z,9.98
2019-01-05T11:17:09.763Z,9.55
2019-01-05T11:20:35.827Z,8.68
2019-01-05T11:24:08.967Z,7.85
2019-01-05T11:27:52.064Z,7.35
2019-01-05T11:31:14.858Z,9.53
2019-01-05T11:34:31.065Z,8.33
2019-01-05T11:38:10.399Z,7.30
2019-01-05T11:41:28.873Z,8.28
2019-01-05T11:44:56.355Z,8.75
2019-01-05T11:48:39.538Z,7.42
2019-01-05T11:52:22.394Z,7.62
2019-01-05T12:00:06.135Z,9.53
2019-01-05T12:07:20.482Z,8.45
2019-01-05T12:10:58.379Z,7.87
2019-01-05T12:14:51.385Z,8.80
2019-01-05T12:18:15.447Z,8.70
2019-01-05T12:21:57.586Z,8.73
2019-01-05T12:25:30.170Z,8.70
2019-01-05T12:29:15.406Z,9.20
2019-01-05T12:32:55.444Z,8.08
2019-01-05T12:36:48.843Z,9.38
2019-01-05T12:40:31.132Z,9.40
2019-01-05T12:43:58.778Z,7.37
2019-01-05T12:47:50.800Z,8.70
2019-01-05T12:51:43.822Z,8.35
2019-01-05T12:55:06.678Z,8.73
2019-01-05T12:58:42.578Z,9.58
2019-01-05T13:01:53.800Z,8.03
2019-01-05T13:05:38.305Z,9.78
2019-01-05T13:09:01.421Z,8.88
2019-01-05T13:12:37.513Z,9.13
2019-01-05T13:16:14.020Z,11.45
2019-01-05T13:19:46.850Z,8.78
2019-01-05T13:23:16.255Z,10.08
2019-01-05T13:26:44.730Z,9.40
2019-01-05T13:30:09.765Z,8.70
2019-01-05T13:33:47.665Z,9.15
2019-01-05T13:37:06.452Z,9.15
2019-01-05T13:40:29.564Z,9.23
2019-01-05T13:44:10.426Z,9.88
2019-01-05T13:47:37.731Z,9.33
2019-01-05T13:51:15.458Z,10.35
2019-01-05T13:54:21.335Z,8.65
2019-01-05T13:57:17.649Z,8.93
2019-01-05T14:00:11.661Z,9.40
2019-01-05T14:02:58.483Z,9.65
2019-01-05T14:05:45.366Z,10.08
2019-01-05T14:08:32.615Z,9.13
2019-01-05T14:11:23.659Z,11.15
2019-01-05T14:14:10.744Z,11.28
2019-01-05T14:17:01.988Z,10.45
2019-01-05T14:19:56.298Z,10.98
2019-01-05T14:22:44.619Z,10.13
2019-01-05T14:25:31.871Z,10.30
2019-01-05T14:28:35.317Z,12.23
2019-01-05T14:31:22.434Z,11.38
2019-01-05T14:34:10.686Z,9.75
2019-01-05T14:37:16.525Z,9.98
2019-01-05T14:40:13.867Z,11.20
2019-01-05T14:43:20.189Z,10.80
2019-01-05T14:46:20.393Z,8.93
2019-01-05T14:49:23.429Z,11.05
2019-01-05T14:52:14.326Z,9.85
2019-01-05T14:55:01.508Z,9.10
2019-01-05T14:58:05.203Z,9.90
2019-01-05T15:00:52.553Z,10.75
2019-01-05T15:03:53.105Z,10.13
2019-01-05T15:06:40.203Z,10.15
2019-01-05T15:09:31.617Z,11.28
2019-01-05T15:12:22.792Z,9.88
2019-01-05T15:15:13.865Z,10.72
2019-01-05T15:18:00.956Z,9.55
2019-01-05T15:20:54.479Z,9.95
2019-01-05T15:23:43.144Z,8.90
2019-01-05T15:26:49.522Z,9.60
2019-01-05T15:29:56.089Z,8.10
2019-01-05T15:32:49.326Z,11.38
2019-01-05T15:35:43.771Z,10.72
2019-01-05T15:38:30.695Z,11.88
2019-01-05T15:41:18.958Z,10.45
2019-01-05T15:44:06.254Z,10.80
2019-01-05T15:46:57.553Z,10.55
2019-01-05T15:49:44.631Z,12.65
2019-01-05T15:52:31.627Z,9.10
2019-01-05T15:55:18.503Z,10.35
2019-01-05T15:58:16.133Z,11.25
2019-01-05T16:01:13.783Z,13.20
2019-01-05T16:04:02.155Z,12.03
2019-01-05T16:07:02.638Z,11.50
2019-01-05T16:09:49.738Z,11.30
2019-01-05T16:12:36.609Z,10.45
2019-01-05T16:15:37.954Z,10.60
2019-01-05T16:18:44.473Z,12.43
2019-01-05T16:21:36.876Z,11.60
2019-01-05T16:24:34.607Z,13.13
2019-01-05T16:27:31.804Z,13.05
2019-01-05T16:30:22.955Z,11.00
2019-01-05T16:33:22.630Z,11.97
2019-01-05T16:36:17.249Z,12.70
2019-01-05T16:39:12.084Z,10.03
2019-01-05T16:41:59.265Z,11.08
2019-01-05T16:44:46.580Z,12.95
2019-01-05T16:47:52.993Z,14.80
2019-01-05T16:50:50.515Z,12.43
2019-01-05T16:53:37.735Z,11.68
2019-01-05T16:56:26.831Z,11.45
2019-01-05T16:59:19.676Z,12.37
2019-01-05T17:02:21.858Z,11.73
2019-01-05T17:05:16.760Z,13.18
2019-01-05T17:08:23.419Z,11.88
2019-01-05T17:11:10.300Z,12.85
2019-01-05T17:14:17.071Z,14.28
2019-01-05T17:16:59.298Z,10.43
2019-01-05T17:19:39.918Z,12.82
2019-01-05T17:22:28.293Z,12.07
2019-01-05T17:25:16.372Z,12.53
2019-01-05T17:28:03.169Z,12.30
2019-01-05T17:31:00.750Z,10.43
2019-01-05T17:33:47.702Z,10.30
2019-01-05T17:36:48.104Z,14.78
2019-01-05T17:39:35.044Z,11.40
2019-01-05T17:42:21.534Z,11.00
2019-01-05T17:45:08.348Z,11.30
2019-01-05T17:47:55.677Z,11.97
2019-01-05T17:50:42.526Z,12.00
2019-01-05T17:53:29.809Z,11.30
2019-01-05T17:56:30.169Z,12.75
2019-01-05T17:59:17.160Z,12.60
2019-01-05T18:02:05.461Z,11.68
2019-01-05T18:05:12.038Z,11.38
2019-01-05T18:07:58.889Z,10.30
2019-01-05T18:10:56.000Z,12.37
2019-01-05T18:13:44.680Z,11.22
2019-01-05T18:16:31.851Z,13.53
2019-01-05T18:19:16.763Z,11.80
2019-01-05T18:22:01.875Z,11.60
2019-01-05T18:25:08.542Z,10.70
2019-01-05T18:28:08.779Z,12.47
2019-01-05T18:31:02.437Z,10.95
2019-01-05T18:33:49.290Z,12.15
2019-01-05T18:36:52.660Z,13.50
2019-01-05T18:39:53.043Z,12.45
2019-01-05T18:42:31.791Z,12.75
2019-01-05T18:45:29.136Z,11.22
2019-01-05T18:48:16.012Z,10.90
2019-01-05T18:51:03.182Z,12.25
2019-01-05T18:53:50.448Z,9.68
2019-01-05T18:56:48.274Z,10.20
2019-01-05T18:59:39.381Z,10.88
2019-01-05T19:02:26.532Z,11.33
2019-01-05T19:05:27.132Z,10.35
2019-01-05T19:08:14.005Z,10.38
2019-01-05T19:11:02.362Z,10.48
2019-01-05T19:13:59.670Z,11.65
2019-01-05T19:16:47.778Z,10.82
2019-01-05T19:19:36.293Z,13.62
2019-01-05T19:22:32.581Z,15.60
2019-01-05T19:25:29.771Z,12.28
2019-01-05T19:28:21.157Z,12.30
2019-01-05T19:31:09.482Z,12.68
2019-01-05T19:33:57.766Z,12.13
2019-01-05T19:36:55.197Z,14.25
2019-01-05T19:39:47.037Z,11.38
2019-01-05T19:42:41.159Z,13.35
2019-01-05T19:45:28.236Z,12.30
2019-01-05T19:48:25.403Z,12.70
2019-01-05T19:51:14.358Z,12.93
2019-01-05T19:53:56.367Z,13.58
2019-01-05T19:56:43.612Z,13.55
2019-01-05T19:59:41.218Z,13.53
2019-01-05T20:02:29.704Z,15.78
2019-01-05T20:05:18.010Z,15.48
2019-01-05T20:08:06.411Z,14.80
2019-01-05T20:11:06.533Z,15.88
2019-01-05T20:13:46.472Z,14.38
2019-01-05T20:16:34.784Z,13.58
2019-01-05T20:19:38.313Z,16.25
2019-01-05T20:22:34.963Z,15.25
2019-01-05T20:25:32.496Z,17.25
2019-01-05T20:28:19.653Z,17.40
2019-01-05T20:31:17.134Z,16.55
2019-01-05T20:34:04.017Z,18.92
2019-01-05T20:36:55.089Z,17.55
2019-01-05T20:39:42.287Z,16.77
2019-01-05T20:42:29.121Z,18.60
2019-01-05T20:45:08.933Z,19.17
2019-01-05T20:48:12.604Z,18.02
2019-01-05T20:50:57.157Z,18.62
2019-01-05T20:53:44.147Z,18.62
2019-01-05T20:56:44.365Z,19.50
2019-01-05T20:59:31.425Z,17.42
2019-01-05T21:02:25.950Z,20.37
2019-01-05T21:05:12.833Z,19.60
2019-01-05T21:08:03.845Z,19.12
2019-01-05T21:10:58.001Z,19.30
2019-01-05T21:13:45.273Z,17.35
2019-01-05T21:16:45.788Z,17.60
2019-01-05T21:19:32.905Z,18.80
2019-01-05T21:22:33.414Z,19.52
2019-01-05T21:25:30.846Z,16.48
2019-01-05T21:28:21.521Z,18.90
2019-01-05T21:31:15.563Z,18.73
2019-01-05T21:34:02.409Z,18.40
2019-01-05T21:36:49.436Z,18.05
2019-01-05T21:39:37.985Z,17.52
2019-01-05T21:42:24.857Z,20.20
2019-01-05T21:45:31.442Z,18.80
2019-01-05T21:48:18.576Z,20.95
2019-01-05T21:51:24.891Z,20.55
2019-01-05T21:54:24.848Z,22.75
2019-01-05T21:57:21.975Z,19.15
2019-01-05T22:00:02.211Z,20.57
2019-01-05T22:03:00.779Z,18.60
2019-01-05T22:05:49.099Z,19.95
2019-01-05T22:08:28.150Z,19.10
2019-01-05T22:11:16.152Z,21.62
2019-01-05T22:13:58.415Z,19.60
2019-01-05T22:16:52.662Z,18.52
2019-01-05T22:19:39.856Z,19.70
2019-01-05T22:22:43.331Z,19.23
2019-01-05T22:25:49.846Z,18.75
2019-01-05T22:28:41.166Z,17.87
2019-01-05T22:31:39.190Z,18.20
2019-01-05T22:34:26.283Z,17.80
2019-01-05T22:37:16.891Z,18.35
2019-01-05T22:40:03.809Z,18.67
2019-01-05T22:43:01.337Z,16.90
2019-01-05T22:45:55.386Z,16.45
2019-01-05T22:48:55.273Z,16.87
2019-01-05T22:51:49.693Z,17.82
2019-01-05T22:54:37.986Z,15.85
2019-01-05T22:57:24.277Z,16.00
2019-01-05T23:00:20.374Z,14.13
2019-01-05T23:03:07.633Z,15.63
2019-01-05T23:05:54.646Z,14.65
2019-01-05T23:08:42.880Z,14.90
2019-01-05T23:11:30.153Z,14.93
2019-01-05T23:14:24.247Z,14.58
2019-01-05T23:17:12.456Z,14.30
2019-01-05T23:20:13.032Z,15.88
2019-01-05T23:23:04.018Z,17.50
2019-01-05T23:25:51.130Z,19.02
2019-01-05T23:28:51.396Z,17.73
2019-01-05T23:31:42.625Z,18.02
2019-01-05T23:34:48.841Z,17.67
2019-01-05T23:37:37.850Z,20.08
2019-01-05T23:40:38.134Z,19.98
2019-01-05T23:43:32.057Z,19.73
2019-01-05T23:46:26.470Z,17.57
2019-01-05T23:49:14.788Z,17.95
2019-01-05T23:52:17.985Z,19.23
2019-01-05T23:55:02.667Z,17.45
2019-01-05T23:57:56.947Z,17.57
